Time;durP1;ratioP1;P1;durP2;ratioP2;P2;SDS_P1;SDS_P2;PMS_P1;PMS_P2;Temp;Humidity;BMP_temperature;BMP_pressure;BME280_temperature;BME280_humidity;BME280_pressure;Samples;Min_cycle;Max_cycle;Signal;HPM_P1;HPM_P2
2021/07/10 00:01:26;;;;;;;0.90;0.70;;;22.80;57.50;;;;;;6324414;28;20264;-68
2021/07/10 00:04:29;;;;;;;0.70;0.70;;;22.80;58.20;;;;;;6324608;28;20241;-63
2021/07/10 00:07:33;;;;;;;1.17;0.60;;;22.70;58.40;;;;;;6324440;28;20609;-62
2021/07/10 00:10:36;;;;;;;1.00;0.50;;;22.70;58.00;;;;;;6324522;28;20241;-63
2021/07/10 00:13:39;;;;;;;0.90;0.80;;;22.60;57.70;;;;;;6324270;28;20226;-63
2021/07/10 00:16:44;;;;;;;1.03;0.90;;;22.50;57.70;;;;;;6324221;28;20249;-65
2021/07/10 00:19:52;;;;;;;0.97;0.77;;;22.50;58.20;;;;;;6324402;28;20226;-63
2021/07/10 00:22:55;;;;;;;1.10;0.90;;;22.40;58.00;;;;;;6324419;28;20543;-63
2021/07/10 00:25:58;;;;;;;0.70;0.60;;;22.30;58.20;;;;;;6324145;28;20234;-62
2021/07/10 00:29:02;;;;;;;0.90;0.70;;;22.20;58.30;;;;;;6324098;28;20222;-68
2021/07/10 00:32:07;;;;;;;0.80;0.60;;;22.20;58.40;;;;;;6324086;28;20249;-66
2021/07/10 00:35:11;;;;;;;0.97;0.77;;;22.10;58.60;;;;;;6323984;28;20684;-69
2021/07/10 00:38:14;;;;;;;0.90;0.80;;;22.00;58.70;;;;;;6324293;28;20241;-69
2021/07/10 00:41:18;;;;;;;1.63;1.07;;;22.00;58.80;;;;;;6324146;28;20245;-68
2021/07/10 00:44:21;;;;;;;1.20;0.90;;;22.00;59.00;;;;;;6323873;28;20676;-66
2021/07/10 00:47:26;;;;;;;0.80;0.80;;;21.90;59.30;;;;;;6315028;28;20234;-67
2021/07/10 00:50:29;;;;;;;1.23;1.13;;;22.00;60.10;;;;;;6323939;28;20687;-67
2021/07/10 00:53:32;;;;;;;1.67;0.83;;;22.00;60.10;;;;;;6323750;28;20233;-67
2021/07/10 00:56:36;;;;;;;1.10;0.80;;;22.00;61.00;;;;;;6324040;28;20254;-63
2021/07/10 00:59:41;;;;;;;1.20;0.93;;;22.00;61.40;;;;;;6323507;28;20742;-63
2021/07/10 01:02:48;;;;;;;0.93;0.80;;;22.00;60.60;;;;;;6325244;28;20237;-69
2021/07/10 01:05:52;;;;;;;1.70;1.10;;;22.00;60.40;;;;;;6328556;28;20309;-67
2021/07/10 01:08:55;;;;;;;1.20;0.83;;;21.90;60.40;;;;;;6328688;28;20605;-67
2021/07/10 01:11:58;;;;;;;1.47;1.00;;;22.00;60.80;;;;;;6328677;28;20222;-64
2021/07/10 01:15:02;;;;;;;0.90;0.83;;;22.00;60.80;;;;;;6328074;28;20617;-68
2021/07/10 01:18:06;;;;;;;0.80;0.80;;;22.00;61.00;;;;;;6328559;28;20221;-65
2021/07/10 01:21:11;;;;;;;1.33;0.90;;;21.90;61.30;;;;;;6303182;28;20238;-65
2021/07/10 01:24:14;;;;;;;0.70;0.60;;;21.90;61.60;;;;;;6303419;28;20231;-63
2021/07/10 01:27:17;;;;;;;3.80;0.70;;;21.80;61.80;;;;;;6301992;28;20210;-63
2021/07/10 01:30:22;;;;;;;1.50;1.07;;;21.80;61.90;;;;;;6302578;28;20206;-65
2021/07/10 01:33:25;;;;;;;0.93;0.90;;;21.80;62.60;;;;;;6305213;28;20207;-67
2021/07/10 01:36:30;;;;;;;1.30;1.00;;;21.80;62.90;;;;;;6324860;28;20242;-67
2021/07/10 01:39:33;;;;;;;0.97;0.90;;;21.80;62.80;;;;;;6302948;28;20237;-67
2021/07/10 01:42:37;;;;;;;2.40;1.60;;;21.70;62.20;;;;;;6302616;28;20237;-67
2021/07/10 01:45:42;;;;;;;2.60;1.03;;;21.70;62.30;;;;;;6302365;28;20698;-67
2021/07/10 01:48:45;;;;;;;1.00;0.87;;;21.60;62.20;;;;;;6302655;28;20260;-67
2021/07/10 01:51:50;;;;;;;1.70;1.10;;;21.60;62.30;;;;;;6321378;28;20703;-67
2021/07/10 01:54:53;;;;;;;1.17;1.07;;;21.60;62.40;;;;;;6302771;28;20230;-67
2021/07/10 01:57:57;;;;;;;0.83;0.77;;;21.50;62.30;;;;;;6302671;28;20223;-67
2021/07/10 02:01:00;;;;;;;2.53;1.10;;;21.40;62.30;;;;;;6302334;28;20222;-65
2021/07/10 02:04:07;;;;;;;1.00;0.90;;;21.40;62.60;;;;;;6310050;28;20226;-62
2021/07/10 02:07:12;;;;;;;2.57;0.70;;;21.30;62.30;;;;;;6318374;28;20680;-62
2021/07/10 02:10:17;;;;;;;1.07;0.93;;;21.40;62.10;;;;;;6302211;28;20223;-69
2021/07/10 02:13:20;;;;;;;1.23;1.10;;;21.40;61.90;;;;;;6301910;28;20234;-69
2021/07/10 02:16:23;;;;;;;0.80;0.73;;;21.40;61.60;;;;;;6301153;28;20227;-69
2021/07/10 02:19:26;;;;;;;0.77;0.77;;;21.50;61.50;;;;;;6312919;28;20226;-69
2021/07/10 02:22:31;;;;;;;1.10;0.90;;;21.50;61.30;;;;;;6315208;28;20691;-68
2021/07/10 02:25:34;;;;;;;1.00;0.90;;;21.50;61.40;;;;;;6302060;28;20235;-68
2021/07/10 02:28:37;;;;;;;1.20;1.10;;;21.60;61.30;;;;;;6301591;28;20680;-68
2021/07/10 02:31:40;;;;;;;1.17;0.90;;;21.60;61.30;;;;;;6301469;28;20280;-69
2021/07/10 02:34:43;;;;;;;1.30;0.90;;;21.50;60.50;;;;;;6315014;28;20696;-68
2021/07/10 02:37:49;;;;;;;2.70;1.60;;;21.50;60.70;;;;;;6312888;28;20237;-69
2021/07/10 02:40:52;;;;;;;1.40;0.90;;;21.40;60.80;;;;;;6301618;28;20226;-69
2021/07/10 02:43:56;;;;;;;1.07;0.97;;;21.40;61.70;;;;;;6301340;28;20257;-67
2021/07/10 02:46:59;;;;;;;1.30;1.13;;;21.30;61.00;;;;;;6301331;28;20237;-67
2021/07/10 02:50:02;;;;;;;1.67;1.57;;;21.30;61.30;;;;;;6317347;28;20225;-67
2021/07/10 02:53:07;;;;;;;1.10;1.00;;;21.30;61.60;;;;;;6304522;28;20594;-66
2021/07/10 02:56:11;;;;;;;1.10;1.00;;;21.30;62.20;;;;;;6308010;28;20242;-66
2021/07/10 02:59:14;;;;;;;2.77;1.20;;;21.10;64.20;;;;;;6311065;28;20222;-66
2021/07/10 03:02:17;;;;;;;2.40;1.17;;;20.90;63.50;;;;;;6315871;28;20236;-66
2021/07/10 03:05:21;;;;;;;1.20;1.10;;;20.90;63.10;;;;;;6319866;28;20571;-66
2021/07/10 03:08:25;;;;;;;1.90;1.50;;;20.90;63.20;;;;;;6310842;27;20234;-66
2021/07/10 03:11:29;;;;;;;2.60;1.50;;;20.80;63.00;;;;;;6319434;28;20555;-66
2021/07/10 03:14:32;;;;;;;2.17;1.43;;;20.80;64.20;;;;;;6325658;28;20233;-65
2021/07/10 03:17:35;;;;;;;1.07;0.97;;;20.80;65.20;;;;;;6301830;28;20231;-65
2021/07/10 03:20:39;;;;;;;1.30;1.20;;;20.90;64.30;;;;;;6321630;28;20603;-65
2021/07/10 03:23:43;;;;;;;1.13;1.03;;;21.00;66.00;;;;;;6303681;28;20284;-65
2021/07/10 03:26:47;;;;;;;1.40;1.30;;;21.00;65.90;;;;;;6300549;28;20233;-65
2021/07/10 03:29:50;;;;;;;1.50;1.20;;;21.00;66.60;;;;;;6325308;28;20609;-65
2021/07/10 03:32:53;;;;;;;1.70;1.20;;;21.00;68.20;;;;;;6325109;28;20247;-65
2021/07/10 03:35:56;;;;;;;2.50;1.20;;;21.00;67.00;;;;;;6329935;28;20234;-64
2021/07/10 03:39:01;;;;;;;1.60;1.00;;;20.90;67.00;;;;;;6301329;28;20687;-64
2021/07/10 03:42:05;;;;;;;1.37;1.10;;;20.70;67.80;;;;;;6299810;28;20242;-64
2021/07/10 03:45:09;;;;;;;1.33;1.20;;;20.70;68.20;;;;;;6299519;28;20246;-64
2021/07/10 03:48:12;;;;;;;1.20;1.10;;;20.70;68.10;;;;;;6300515;28;20238;-64
2021/07/10 03:51:16;;;;;;;3.37;1.50;;;20.70;68.60;;;;;;6323979;28;20210;-64
2021/07/10 03:54:21;;;;;;;3.90;1.40;;;20.80;68.90;;;;;;6305280;28;20222;-64
2021/07/10 03:57:24;;;;;;;2.47;1.40;;;20.90;68.70;;;;;;6319789;28;20671;-65
2021/07/10 04:00:27;;;;;;;1.00;0.90;;;20.80;69.10;;;;;;6324503;28;20656;-64
2021/07/10 04:03:30;;;;;;;1.40;1.30;;;20.80;69.10;;;;;;6327852;28;20225;-65
2021/07/10 04:06:33;;;;;;;1.20;1.00;;;20.90;69.20;;;;;;6346408;27;20624;-64
2021/07/10 04:09:38;;;;;;;1.53;1.23;;;20.90;69.50;;;;;;6324743;28;20690;-64
2021/07/10 04:12:43;;;;;;;1.63;1.00;;;20.90;69.60;;;;;;6324141;28;20686;-65
2021/07/10 04:15:46;;;;;;;1.50;1.10;;;20.80;70.00;;;;;;6314687;28;20227;-64
2021/07/10 04:18:49;;;;;;;2.30;1.30;;;20.70;70.50;;;;;;6304668;28;20236;-65
2021/07/10 04:21:52;;;;;;;1.30;1.20;;;20.90;70.20;;;;;;6318407;28;20227;-65
2021/07/10 04:24:57;;;;;;;1.80;1.30;;;20.90;69.60;;;;;;6298978;28;20226;-65
2021/07/10 04:28:01;;;;;;;1.30;1.17;;;20.90;69.50;;;;;;6298743;28;20222;-65
2021/07/10 04:31:04;;;;;;;3.00;1.20;;;21.00;70.00;;;;;;6298711;28;20234;-66
2021/07/10 04:34:08;;;;;;;1.60;1.27;;;21.00;70.00;;;;;;6307423;28;20363;-66
2021/07/10 04:37:11;;;;;;;1.30;1.20;;;21.00;70.30;;;;;;6314965;28;20234;-64
2021/07/10 04:40:16;;;;;;;1.57;1.30;;;21.00;70.00;;;;;;6299051;28;20237;-65
2021/07/10 04:43:19;;;;;;;2.60;1.40;;;21.10;69.60;;;;;;6298879;28;20313;-65
2021/07/10 04:46:22;;;;;;;1.40;1.20;;;21.20;69.50;;;;;;6298843;28;20238;-65
2021/07/10 04:49:25;;;;;;;1.90;1.50;;;21.30;69.70;;;;;;6309844;28;20237;-65
2021/07/10 04:52:29;;;;;;;1.70;1.60;;;21.40;69.60;;;;;;6312872;28;20241;-66
2021/07/10 04:55:34;;;;;;;1.47;1.30;;;21.50;69.30;;;;;;6299047;28;20241;-65
2021/07/10 04:58:38;;;;;;;1.80;1.53;;;21.60;69.10;;;;;;6298625;28;20223;-65
2021/07/10 05:01:41;;;;;;;4.23;1.67;;;21.70;68.80;;;;;;6298915;28;20231;-66
2021/07/10 05:04:45;;;;;;;1.60;1.20;;;21.80;69.00;;;;;;6311974;28;20230;-66
2021/07/10 05:07:48;;;;;;;2.10;1.20;;;22.10;68.10;;;;;;6310308;28;20377;-65
2021/07/10 05:10:53;;;;;;;2.07;1.87;;;22.30;67.10;;;;;;6298402;28;20583;-64
2021/07/10 05:13:56;;;;;;;3.03;1.30;;;22.60;66.80;;;;;;6298307;28;20231;-65
2021/07/10 05:16:59;;;;;;;1.67;1.20;;;22.80;65.50;;;;;;6298189;28;20237;-65
2021/07/10 05:20:03;;;;;;;2.47;1.67;;;23.00;64.60;;;;;;6314497;28;20237;-65
2021/07/10 05:23:06;;;;;;;1.33;1.23;;;23.30;63.90;;;;;;6307027;28;20695;-66
2021/07/10 05:26:10;;;;;;;1.60;1.30;;;23.50;61.50;;;;;;6298110;28;20626;-65
2021/07/10 05:29:14;;;;;;;1.63;1.40;;;23.70;62.80;;;;;;6298316;28;20241;-66
2021/07/10 05:32:18;;;;;;;3.20;1.90;;;24.20;61.80;;;;;;6298329;28;20679;-66
2021/07/10 05:35:22;;;;;;;2.23;1.40;;;24.40;59.90;;;;;;6316637;28;20707;-66
2021/07/10 05:38:26;;;;;;;3.47;1.13;;;24.50;59.30;;;;;;6303965;28;20574;-66
2021/07/10 05:41:30;;;;;;;1.37;1.27;;;24.60;58.40;;;;;;6298327;28;20556;-66
2021/07/10 05:44:33;;;;;;;1.40;1.30;;;24.80;57.40;;;;;;6297718;28;20246;-66
2021/07/10 05:47:37;;;;;;;3.37;1.50;;;24.70;57.00;;;;;;6298062;28;20227;-66
2021/07/10 05:50:40;;;;;;;1.23;1.13;;;24.80;57.70;;;;;;6323342;28;20585;-66
2021/07/10 05:53:43;;;;;;;3.00;1.30;;;24.80;56.80;;;;;;6306048;28;20611;-66
2021/07/10 05:56:48;;;;;;;1.00;0.90;;;24.80;56.90;;;;;;6302440;28;20265;-66
2021/07/10 05:59:51;;;;;;;1.13;1.03;;;24.80;57.30;;;;;;6302274;28;20237;-66
2021/07/10 06:02:54;;;;;;;0.80;0.77;;;24.80;57.00;;;;;;6302113;28;20660;-66
2021/07/10 06:05:57;;;;;;;1.03;0.93;;;24.90;57.00;;;;;;6314594;28;20241;-66
2021/07/10 06:09:00;;;;;;;2.13;1.20;;;25.00;56.80;;;;;;6303666;28;20238;-65
2021/07/10 06:12:10;;;;;;;1.10;1.00;;;25.20;56.70;;;;;;6302113;28;20726;-66
2021/07/10 06:15:14;;;;;;;1.80;1.03;;;25.30;55.20;;;;;;6326738;28;20268;-66
2021/07/10 06:18:17;;;;;;;1.87;1.20;;;25.50;54.00;;;;;;6302124;28;20639;-67
2021/07/10 06:21:20;;;;;;;1.20;1.10;;;26.00;53.20;;;;;;6302101;28;20234;-67
2021/07/10 06:24:25;;;;;;;1.30;1.20;;;26.40;51.40;;;;;;6301454;28;20238;-67
2021/07/10 06:27:29;;;;;;;0.97;0.87;;;26.60;51.10;;;;;;6304597;28;20206;-67
2021/07/10 06:30:32;;;;;;;1.10;1.00;;;26.50;50.40;;;;;;6323359;28;20242;-66
2021/07/10 06:33:36;;;;;;;1.23;1.13;;;25.60;52.10;;;;;;6301851;28;20234;-66
2021/07/10 06:36:39;;;;;;;1.27;1.07;;;25.40;53.80;;;;;;6301356;28;20260;-66
2021/07/10 06:39:42;;;;;;;1.30;1.20;;;26.10;53.50;;;;;;6301393;28;20695;-66
2021/07/10 06:42:47;;;;;;;1.57;1.47;;;26.70;53.10;;;;;;6307236;28;20225;-67
2021/07/10 06:45:50;;;;;;;1.43;1.00;;;27.30;53.30;;;;;;6335088;27;20226;-67
2021/07/10 06:48:53;;;;;;;1.13;1.03;;;27.50;53.60;;;;;;6326429;28;20225;-67
2021/07/10 06:51:57;;;;;;;1.20;1.10;;;27.70;53.60;;;;;;6319181;28;20230;-67
2021/07/10 06:55:00;;;;;;;1.30;1.10;;;28.00;53.00;;;;;;6300810;28;20238;-67
2021/07/10 06:58:05;;;;;;;2.53;1.33;;;28.90;51.90;;;;;;6308604;28;20367;-68
2021/07/10 07:01:08;;;;;;;1.70;0.93;;;29.00;51.80;;;;;;6317530;28;20538;-69
2021/07/10 07:04:11;;;;;;;1.40;1.30;;;29.50;51.60;;;;;;6300748;28;20222;-65
2021/07/10 07:07:14;;;;;;;1.73;1.03;;;30.10;49.80;;;;;;6292004;28;20228;-65
2021/07/10 07:10:17;;;;;;;1.57;0.90;;;29.80;49.60;;;;;;6317313;28;20623;-65
2021/07/10 07:13:22;;;;;;;1.43;1.17;;;29.90;49.00;;;;;;6336021;28;20228;-63
2021/07/10 07:16:25;;;;;;;1.40;1.30;;;31.00;47.40;;;;;;6340439;27;20233;-68
2021/07/10 07:19:30;;;;;;;1.60;1.20;;;32.00;45.70;;;;;;6326058;28;20225;-64
2021/07/10 07:22:34;;;;;;;1.63;1.20;;;32.30;44.40;;;;;;6325339;28;20240;-63
2021/07/10 07:25:37;;;;;;;1.85;1.15;;;33.00;44.00;;;;;;6325666;28;20273;-69
2021/07/10 07:28:43;;;;;;;1.40;1.30;;;32.50;44.40;;;;;;6338039;28;20255;-66
2021/07/10 07:31:47;;;;;;;2.58;1.13;;;32.50;44.50;;;;;;6336977;27;20312;-66
2021/07/10 07:34:50;;;;;;;1.50;1.40;;;33.20;43.00;;;;;;6325412;28;20233;-69
2021/07/10 07:37:54;;;;;;;2.08;1.42;;;34.70;42.20;;;;;;6316461;28;20230;-64
2021/07/10 07:40:59;;;;;;;1.38;1.27;;;35.80;40.90;;;;;;6300234;28;20222;-64
2021/07/10 07:44:03;;;;;;;1.42;1.30;;;36.60;39.50;;;;;;6314991;28;20233;-65
2021/07/10 07:47:07;;;;;;;1.38;1.27;;;37.00;38.50;;;;;;6308870;28;20226;-68
2021/07/10 07:50:13;;;;;;;1.50;1.40;;;37.00;37.60;;;;;;6299601;28;20226;-67
2021/07/10 07:53:16;;;;;;;1.73;1.25;;;37.60;37.00;;;;;;6299533;28;20757;-68
2021/07/10 07:56:19;;;;;;;1.92;1.33;;;37.20;36.90;;;;;;6299458;28;20237;-68
2021/07/10 07:59:24;;;;;;;3.13;1.33;;;35.90;37.80;;;;;;6320660;28;20225;-67
2021/07/10 08:02:27;;;;;;;1.20;1.10;;;35.60;38.20;;;;;;6329498;27;20230;-67
2021/07/10 08:05:31;;;;;;;1.60;1.50;;;35.30;38.10;;;;;;6324632;28;20237;-67
2021/07/10 08:08:36;;;;;;;1.77;1.63;;;33.70;40.50;;;;;;6303441;28;20229;-67
2021/07/10 08:11:40;;;;;;;1.65;1.55;;;32.60;42.70;;;;;;6294348;28;20242;-68
2021/07/10 08:14:44;;;;;;;2.20;1.48;;;32.50;43.50;;;;;;6319591;28;20639;-68
2021/07/10 08:17:49;;;;;;;1.83;1.58;;;32.30;42.70;;;;;;6302529;28;20245;-67
2021/07/10 08:20:53;;;;;;;1.77;1.67;;;32.00;43.60;;;;;;6298989;28;20237;-68
2021/07/10 08:23:58;;;;;;;2.63;1.67;;;31.40;44.60;;;;;;6300653;28;20222;-68
2021/07/10 08:27:01;;;;;;;2.10;1.90;;;30.90;45.70;;;;;;6324131;28;20229;-67
2021/07/10 08:30:08;;;;;;;2.28;1.73;;;30.40;46.30;;;;;;6348410;28;20281;-68
2021/07/10 08:33:12;;;;;;;1.93;1.73;;;30.20;47.40;;;;;;6324085;27;20245;-66
2021/07/10 08:36:15;;;;;;;2.00;1.80;;;29.90;48.20;;;;;;6324055;28;20590;-68
2021/07/10 08:39:18;;;;;;;2.60;1.70;;;29.90;47.20;;;;;;6349454;28;20669;-67
2021/07/10 08:42:22;;;;;;;4.10;2.43;;;29.70;47.40;;;;;;6348941;28;20235;-67
2021/07/10 08:45:32;;;;;;;2.23;2.03;;;29.60;47.40;;;;;;6349466;28;20224;-67
2021/07/10 08:48:36;;;;;;;2.87;1.87;;;29.60;47.60;;;;;;6349301;28;20235;-67
2021/07/10 08:51:39;;;;;;;1.93;1.83;;;29.60;47.90;;;;;;6349698;28;20306;-67
2021/07/10 08:54:42;;;;;;;2.90;2.40;;;29.40;48.10;;;;;;6328057;28;20287;-68
2021/07/10 08:57:45;;;;;;;1.90;1.80;;;29.50;48.50;;;;;;6325063;28;20709;-67
2021/07/10 09:00:51;;;;;;;2.90;1.83;;;29.60;48.80;;;;;;6321838;28;20649;-67
2021/07/10 09:03:55;;;;;;;2.20;2.10;;;29.70;49.10;;;;;;6321827;28;20229;-67
2021/07/10 09:06:58;;;;;;;1.90;1.80;;;29.80;49.10;;;;;;6321462;28;20236;-67
2021/07/10 09:10:01;;;;;;;2.30;2.10;;;29.50;49.40;;;;;;6321614;28;20248;-67
2021/07/10 09:13:05;;;;;;;3.43;2.13;;;29.40;49.60;;;;;;6321427;28;20757;-67
2021/07/10 09:16:11;;;;;;;2.70;2.17;;;29.40;49.20;;;;;;6316936;28;20707;-67
2021/07/10 09:19:15;;;;;;;2.53;2.00;;;29.50;48.90;;;;;;6322671;28;20697;-67
2021/07/10 09:22:30;;;;;;;2.07;1.90;;;28.90;49.10;;;;;;6322707;28;20248;-67
2021/07/10 09:25:34;;;;;;;6.33;2.50;;;29.00;49.70;;;;;;6327861;28;20251;-67
2021/07/10 09:28:37;;;;;;;2.40;2.20;;;29.20;49.90;;;;;;6328596;28;20225;-67
2021/07/10 09:31:44;;;;;;;2.50;2.30;;;29.30;49.80;;;;;;6328674;28;20255;-67
2021/07/10 09:34:49;;;;;;;2.23;2.03;;;29.10;49.80;;;;;;6328156;28;20683;-67
2021/07/10 09:37:55;;;;;;;2.07;1.97;;;28.60;50.90;;;;;;6328206;28;20287;-67
2021/07/10 09:41:00;;;;;;;4.30;2.23;;;28.90;50.50;;;;;;6327981;28;20586;-67
2021/07/10 09:44:09;;;;;;;3.77;1.97;;;29.30;48.70;;;;;;6327354;28;20225;-67
2021/07/10 09:47:16;;;;;;;2.20;2.00;;;29.40;48.10;;;;;;6327946;28;20230;-67
2021/07/10 09:50:22;;;;;;;1.90;1.80;;;29.50;49.10;;;;;;6327687;28;20667;-66
2021/07/10 09:53:27;;;;;;;2.27;2.07;;;29.60;48.00;;;;;;6327817;28;20221;-67
2021/07/10 09:56:32;;;;;;;2.03;1.87;;;29.90;48.00;;;;;;6327437;28;20694;-67
2021/07/10 09:59:37;;;;;;;2.30;2.10;;;30.40;47.50;;;;;;6327229;28;20229;-67
2021/07/10 10:02:45;;;;;;;1.73;1.63;;;30.50;46.50;;;;;;6327434;28;20697;-68
2021/07/10 10:05:48;;;;;;;2.63;1.77;;;30.50;46.20;;;;;;6327050;28;20229;-67
2021/07/10 10:08:51;;;;;;;2.50;2.30;;;30.40;46.40;;;;;;6327578;28;20221;-67
2021/07/10 10:12:00;;;;;;;2.53;2.03;;;30.50;46.10;;;;;;6327028;28;20237;-67
2021/07/10 10:15:09;;;;;;;2.20;2.00;;;30.50;45.20;;;;;;6326709;28;20713;-67
2021/07/10 10:18:16;;;;;;;1.97;1.60;;;30.30;44.80;;;;;;6326782;28;20225;-67
2021/07/10 10:21:20;;;;;;;2.47;2.27;;;30.10;45.00;;;;;;6327388;28;20221;-67
2021/07/10 10:24:25;;;;;;;2.20;1.57;;;30.20;44.20;;;;;;6326837;28;20286;-67
2021/07/10 10:27:28;;;;;;;2.40;2.10;;;29.90;43.90;;;;;;6326948;28;20217;-67
2021/07/10 10:30:32;;;;;;;2.00;1.80;;;29.80;44.50;;;;;;6326768;28;20205;-67
2021/07/10 10:33:37;;;;;;;2.43;2.30;;;29.60;45.90;;;;;;6326790;28;20787;-67
2021/07/10 10:36:43;;;;;;;2.73;2.53;;;28.90;47.70;;;;;;6325473;28;20221;-67
2021/07/10 10:39:47;;;;;;;2.67;2.33;;;29.00;47.50;;;;;;6327140;28;20221;-68
2021/07/10 10:42:54;;;;;;;2.70;2.23;;;29.00;47.80;;;;;;6326743;28;20229;-68
2021/07/10 10:45:58;;;;;;;1.83;1.70;;;29.20;47.80;;;;;;6326335;28;20612;-67
2021/07/10 10:49:03;;;;;;;2.47;2.10;;;29.30;47.60;;;;;;6326409;28;20226;-67
2021/07/10 10:52:30;;;;;;;2.60;2.23;;;29.20;48.20;;;;;;6326319;28;20701;-67
2021/07/10 10:55:38;;;;;;;2.30;2.10;;;29.30;47.90;;;;;;6324335;28;20283;-68
2021/07/10 10:58:42;;;;;;;2.07;1.97;;;29.10;48.10;;;;;;6326439;28;20229;-67
2021/07/10 11:01:45;;;;;;;2.73;2.53;;;28.90;48.40;;;;;;6326382;28;20591;-67
2021/07/10 11:05:03;;;;;;;2.73;2.53;;;29.00;48.40;;;;;;6326058;28;20260;-67
2021/07/10 11:08:41;;;;;;;2.80;2.60;;;28.80;49.00;;;;;;6326154;28;20233;-67
2021/07/10 11:11:44;;;;;;;2.30;2.17;;;28.50;49.80;;;;;;6326007;28;20229;-67
2021/07/10 11:14:47;;;;;;;3.07;2.47;;;28.70;48.90;;;;;;6325425;28;20241;-67
2021/07/10 11:17:50;;;;;;;2.33;2.23;;;28.80;48.60;;;;;;6325711;28;20233;-67
2021/07/10 11:20:56;;;;;;;2.67;2.07;;;28.80;48.50;;;;;;6324095;28;20685;-67
2021/07/10 11:24:21;;;;;;;2.43;2.23;;;29.00;49.00;;;;;;6316873;28;20237;-67
2021/07/10 11:27:25;;;;;;;2.60;2.43;;;29.00;48.80;;;;;;6335815;28;20230;-67
2021/07/10 11:30:28;;;;;;;2.50;2.30;;;29.10;48.90;;;;;;6332095;28;20205;-67
2021/07/10 11:33:57;;;;;;;2.87;2.60;;;29.00;48.50;;;;;;6336237;27;20201;-68
2021/07/10 11:37:13;;;;;;;2.73;2.53;;;29.10;49.10;;;;;;6336022;27;20248;-66
2021/07/10 11:40:16;;;;;;;2.70;2.50;;;29.30;48.40;;;;;;6347556;28;20229;-66
2021/07/10 11:43:37;;;;;;;3.00;2.60;;;29.30;48.50;;;;;;6348060;28;20243;-68
2021/07/10 11:47:05;;;;;;;2.77;2.57;;;29.50;48.40;;;;;;6346920;27;20228;-67
2021/07/10 11:50:11;;;;;;;2.20;2.10;;;29.50;47.80;;;;;;6347824;27;20224;-70
2021/07/10 11:53:15;;;;;;;2.63;2.43;;;29.60;47.90;;;;;;6340785;27;20223;-73
2021/07/10 11:56:19;;;;;;;3.20;2.90;;;29.30;48.90;;;;;;6337401;28;20355;-68
2021/07/10 11:59:23;;;;;;;3.00;2.80;;;29.20;49.20;;;;;;6338137;28;20231;-70
2021/07/10 12:02:28;;;;;;;2.90;2.70;;;29.10;49.70;;;;;;6345460;27;20326;-66
2021/07/10 12:05:36;;;;;;;3.23;3.03;;;29.00;49.20;;;;;;6332537;28;20224;-71
2021/07/10 12:08:41;;;;;;;3.07;2.80;;;29.20;49.60;;;;;;6333882;28;20225;-71
2021/07/10 12:11:44;;;;;;;3.10;2.90;;;29.20;48.60;;;;;;6345473;28;20392;-69
2021/07/10 12:14:51;;;;;;;3.20;3.00;;;29.00;49.20;;;;;;6330610;27;20559;-69
2021/07/10 12:17:55;;;;;;;2.50;2.40;;;29.00;49.20;;;;;;6252463;28;20242;-66
2021/07/10 12:21:02;;;;;;;2.60;2.40;;;29.00;49.20;;;;;;6249313;28;20232;-67
2021/07/10 12:24:06;;;;;;;3.23;2.90;;;29.20;49.40;;;;;;6249329;28;20227;-67
2021/07/10 12:27:11;;;;;;;3.33;3.13;;;29.20;48.70;;;;;;6284169;28;20620;-66
2021/07/10 12:30:15;;;;;;;2.97;2.77;;;29.00;48.10;;;;;;6298669;28;20222;-67
2021/07/10 12:33:36;;;;;;;3.10;2.90;;;28.60;49.70;;;;;;6298941;28;20209;-69
2021/07/10 12:36:41;;;;;;;2.50;2.40;;;28.70;49.60;;;;;;6282899;28;20235;-71
2021/07/10 12:39:45;;;;;;;3.23;2.77;;;28.90;49.40;;;;;;6285828;28;20222;-70
2021/07/10 12:42:56;;;;;;;4.90;3.17;;;28.90;49.60;;;;;;6274357;28;20226;-69
2021/07/10 12:45:59;;;;;;;2.67;2.47;;;29.00;48.50;;;;;;6286325;28;20245;-67
2021/07/10 12:49:12;;;;;;;3.17;2.87;;;29.00;49.20;;;;;;6285146;28;20333;-68
2021/07/10 12:52:23;;;;;;;2.90;2.70;;;29.00;49.20;;;;;;6271318;28;20230;-67
2021/07/10 12:55:34;;;;;;;2.90;2.63;;;29.20;49.40;;;;;;6275789;28;20260;-72
2021/07/10 12:58:40;;;;;;;2.77;2.57;;;29.40;48.50;;;;;;6294983;28;20548;-69
2021/07/10 13:01:49;;;;;;;2.40;2.20;;;29.40;47.70;;;;;;6301448;28;20222;-69
2021/07/10 13:04:53;;;;;;;2.87;2.67;;;29.50;45.80;;;;;;6299589;28;20214;-68
2021/07/10 13:08:09;;;;;;;2.83;2.40;;;29.40;46.80;;;;;;6302873;28;20713;-69
2021/07/10 13:11:14;;;;;;;2.93;2.73;;;29.40;46.30;;;;;;6303380;28;20718;-71
2021/07/10 13:14:20;;;;;;;2.70;2.50;;;29.20;47.60;;;;;;6303262;28;20577;-70
2021/07/10 13:17:23;;;;;;;2.27;2.07;;;29.30;47.50;;;;;;6344434;28;20225;-69
2021/07/10 13:20:30;;;;;;;2.70;2.50;;;29.40;46.70;;;;;;6353671;28;20681;-69
2021/07/10 13:23:36;;;;;;;2.33;2.23;;;29.20;46.40;;;;;;6353694;27;20316;-71
2021/07/10 13:26:43;;;;;;;3.13;2.30;;;28.90;47.00;;;;;;6353328;28;20233;-70
2021/07/10 13:29:46;;;;;;;2.90;2.70;;;28.60;46.00;;;;;;6346332;27;20226;-69
2021/07/10 13:32:54;;;;;;;3.20;2.93;;;28.80;46.20;;;;;;6330738;28;20244;-68
2021/07/10 13:36:13;;;;;;;3.03;2.83;;;29.10;47.30;;;;;;6327795;28;20698;-70
2021/07/10 13:39:18;;;;;;;2.87;2.67;;;28.90;48.40;;;;;;6327975;28;20214;-69
2021/07/10 13:42:23;;;;;;;3.07;2.20;;;28.90;48.70;;;;;;6327705;28;20186;-69
2021/07/10 13:45:26;;;;;;;3.10;2.90;;;28.80;48.70;;;;;;6327358;28;20671;-69
2021/07/10 13:48:29;;;;;;;2.83;2.63;;;28.90;49.10;;;;;;6339248;27;20220;-68
2021/07/10 13:51:32;;;;;;;3.20;2.90;;;28.90;48.90;;;;;;6328289;28;20213;-69
2021/07/10 13:54:38;;;;;;;3.90;3.60;;;29.00;49.20;;;;;;6345793;27;20373;-70
2021/07/10 13:57:43;;;;;;;2.90;2.70;;;29.00;49.70;;;;;;6352617;27;20550;-69
2021/07/10 14:00:47;;;;;;;3.43;3.13;;;29.10;50.50;;;;;;6352136;27;20776;-69
2021/07/10 14:03:50;;;;;;;3.33;3.13;;;29.10;49.60;;;;;;6352106;27;20221;-71
2021/07/10 14:06:53;;;;;;;3.20;3.00;;;29.10;48.20;;;;;;6352704;27;20225;-70
2021/07/10 14:09:57;;;;;;;2.70;2.50;;;29.00;48.20;;;;;;6352520;27;20233;-66
2021/07/10 14:13:06;;;;;;;2.77;2.57;;;29.10;48.20;;;;;;6352875;27;20229;-65
2021/07/10 14:16:09;;;;;;;2.40;2.20;;;29.00;48.50;;;;;;6351615;27;20689;-68
2021/07/10 14:19:12;;;;;;;2.50;2.40;;;28.80;48.30;;;;;;6352459;27;20232;-69
2021/07/10 14:22:16;;;;;;;2.60;2.40;;;28.80;48.20;;;;;;6349900;27;20235;-66
2021/07/10 14:25:22;;;;;;;2.50;2.20;;;28.80;48.30;;;;;;6350432;27;20228;-67
2021/07/10 14:28:27;;;;;;;2.30;2.10;;;29.00;47.40;;;;;;6350641;27;20228;-70
2021/07/10 14:31:30;;;;;;;2.00;1.90;;;29.20;46.70;;;;;;6350386;27;20239;-69
2021/07/10 14:34:33;;;;;;;2.20;2.07;;;28.80;45.90;;;;;;6341523;27;20233;-69
2021/07/10 14:37:37;;;;;;;2.03;1.90;;;28.80;45.30;;;;;;6351600;27;20236;-68
2021/07/10 14:40:40;;;;;;;2.83;2.07;;;28.90;45.40;;;;;;6352067;27;20233;-68
2021/07/10 14:43:45;;;;;;;1.80;1.70;;;29.10;44.60;;;;;;6351566;27;20685;-68
2021/07/10 14:46:48;;;;;;;2.40;2.20;;;29.00;44.50;;;;;;6350669;27;20232;-68
2021/07/10 14:49:51;;;;;;;2.67;1.80;;;29.00;44.80;;;;;;6351255;27;20304;-69
2021/07/10 14:52:56;;;;;;;2.40;2.20;;;29.20;44.50;;;;;;6336105;27;20221;-69
2021/07/10 14:55:59;;;;;;;2.47;2.27;;;29.30;44.20;;;;;;6334242;27;20226;-69
2021/07/10 14:59:04;;;;;;;2.63;2.43;;;29.20;44.60;;;;;;6325965;28;20237;-69
2021/07/10 15:02:07;;;;;;;2.23;1.90;;;29.40;44.50;;;;;;6348837;27;20603;-70
2021/07/10 15:05:11;;;;;;;2.73;2.40;;;29.50;45.10;;;;;;6351305;27;20225;-69
2021/07/10 15:08:15;;;;;;;2.70;2.50;;;29.50;46.10;;;;;;6327179;28;20232;-69
2021/07/10 15:11:18;;;;;;;3.73;2.40;;;29.50;46.60;;;;;;6327464;27;20234;-67
2021/07/10 15:14:23;;;;;;;2.60;2.27;;;29.40;46.90;;;;;;6325463;28;20577;-66
2021/07/10 15:17:26;;;;;;;2.73;2.53;;;29.30;46.60;;;;;;6325480;28;20610;-65
2021/07/10 15:20:29;;;;;;;4.13;2.77;;;29.00;47.80;;;;;;6325699;28;20222;-69
2021/07/10 15:23:33;;;;;;;3.93;3.13;;;29.00;48.50;;;;;;6344392;28;20233;-66
2021/07/10 15:26:37;;;;;;;2.53;2.33;;;29.00;48.70;;;;;;6330013;27;20229;-65
2021/07/10 15:29:41;;;;;;;2.90;2.70;;;29.20;48.40;;;;;;6322909;28;20686;-65
2021/07/10 15:32:45;;;;;;;6.20;2.93;;;29.20;48.80;;;;;;6323069;28;20225;-65
2021/07/10 15:35:48;;;;;;;3.30;2.80;;;29.20;48.30;;;;;;6322879;28;20237;-64
2021/07/10 15:38:52;;;;;;;3.50;2.60;;;29.10;48.70;;;;;;6340371;28;20236;-64
2021/07/10 15:41:55;;;;;;;2.70;2.50;;;29.20;48.10;;;;;;6326005;27;20236;-65
2021/07/10 15:44:59;;;;;;;2.93;2.60;;;29.30;48.20;;;;;;6324767;28;20244;-64
2021/07/10 15:48:03;;;;;;;3.00;2.80;;;29.30;47.70;;;;;;6324150;28;20229;-64
2021/07/10 15:51:07;;;;;;;4.77;4.37;;;29.40;47.70;;;;;;6324893;28;20232;-64
2021/07/10 15:54:10;;;;;;;3.70;3.27;;;29.60;48.90;;;;;;6331721;28;20227;-66
2021/07/10 15:57:14;;;;;;;3.40;3.20;;;29.50;47.70;;;;;;6324869;27;20702;-63
2021/07/10 16:00:20;;;;;;;3.00;2.70;;;29.70;47.70;;;;;;6316922;28;20227;-64
2021/07/10 16:03:24;;;;;;;3.60;3.33;;;29.70;48.10;;;;;;6324948;28;20200;-64